createdAt,value
2018-09-11T00:00:53.047Z,98050.68
2018-09-11T00:03:21.609Z,98056.55
2018-09-11T00:05:50.207Z,98057.10
2018-09-11T00:08:18.863Z,98057.94
2018-09-11T00:10:47.419Z,98052.98
2018-09-11T00:13:15.979Z,98051.70
2018-09-11T00:15:44.636Z,98054.73
2018-09-11T00:18:13.184Z,98058.39
2018-09-11T00:20:41.742Z,98058.41
2018-09-11T00:23:10.843Z,98054.17
2018-09-11T00:25:39.395Z,98061.32
2018-09-11T00:28:08.059Z,98054.25
2018-09-11T00:30:36.682Z,98057.30
2018-09-11T00:33:05.267Z,98057.00
2018-09-11T00:35:33.812Z,98058.94
2018-09-11T00:38:02.491Z,98053.80
2018-09-11T00:40:31.044Z,98049.87
2018-09-11T00:42:59.636Z,98046.92
2018-09-11T00:45:28.232Z,98040.50
2018-09-11T00:47:56.791Z,98036.27
2018-09-11T00:50:25.344Z,98037.38
2018-09-11T00:52:54.342Z,98043.80
2018-09-11T00:55:22.895Z,98049.95
2018-09-11T00:57:51.927Z,98047.01
2018-09-11T01:00:20.708Z,98051.31
2018-09-11T01:02:49.368Z,98051.67
2018-09-11T01:05:17.919Z,98062.41
2018-09-11T01:07:47.286Z,98066.52
2018-09-11T01:10:15.858Z,98067.14
2018-09-11T01:12:44.424Z,98066.41
2018-09-11T01:15:13.347Z,98069.25
2018-09-11T01:17:41.952Z,98070.72
2018-09-11T01:20:10.547Z,98068.63
2018-09-11T01:22:39.148Z,98066.86
2018-09-11T01:25:07.730Z,98068.91
2018-09-11T01:27:36.285Z,98070.36
2018-09-11T01:30:05.344Z,98073.52
2018-09-11T01:32:34.129Z,98069.30
2018-09-11T01:35:02.682Z,98081.97
2018-09-11T01:37:31.283Z,98080.75
2018-09-11T01:39:59.836Z,98088.17
2018-09-11T01:42:28.395Z,98086.07
2018-09-11T01:44:57.288Z,98084.69
2018-09-11T01:47:25.881Z,98087.23
2018-09-11T01:49:54.406Z,98078.31
2018-09-11T01:52:23.243Z,98079.36
2018-09-11T01:54:51.798Z,98085.59
2018-09-11T01:57:20.363Z,98085.77
2018-09-11T01:59:49.298Z,98087.61
2018-09-11T02:02:17.868Z,98090.55
2018-09-11T02:04:46.424Z,98088.97
2018-09-11T02:07:15.866Z,98089.52
2018-09-11T02:09:44.425Z,98090.70
2018-09-11T02:12:13.017Z,98097.89
2018-09-11T02:14:41.924Z,98094.31
2018-09-11T02:17:10.480Z,98092.09
2018-09-11T02:19:39.058Z,98092.16
2018-09-11T02:22:08.191Z,98098.57
2018-09-11T02:24:36.828Z,98095.80
2018-09-11T02:27:05.423Z,98094.13
2018-09-11T02:29:34.087Z,98091.39
2018-09-11T02:32:02.656Z,98094.50
2018-09-11T02:34:31.203Z,98094.29
2018-09-11T02:37:00.112Z,98096.58
2018-09-11T02:39:29.355Z,98096.47
2018-09-11T02:41:57.915Z,98092.33
2018-09-11T02:44:26.499Z,98094.52
2018-09-11T02:46:55.052Z,98089.94
2018-09-11T02:49:23.608Z,98098.31
2018-09-11T02:51:52.431Z,98095.30
2018-09-11T02:54:20.984Z,98101.88
2018-09-11T02:56:49.540Z,98097.02
2018-09-11T02:59:18.268Z,98101.43
2018-09-11T03:01:46.839Z,98106.79
2018-09-11T03:04:17.536Z,98111.52
2018-09-11T03:06:46.123Z,98109.88
2018-09-11T03:09:14.675Z,98112.89
2018-09-11T03:11:43.260Z,98111.06
2018-09-11T03:14:12.268Z,98111.80
2018-09-11T03:16:40.942Z,98116.09
2018-09-11T03:19:09.527Z,98121.99
2018-09-11T03:21:38.543Z,98122.50
2018-09-11T03:24:07.212Z,98126.72
2018-09-11T03:26:36.286Z,98126.61
2018-09-11T03:29:05.800Z,98126.05
2018-09-11T03:31:34.370Z,98124.54
2018-09-11T03:34:03.040Z,98129.38
2018-09-11T03:36:32.143Z,98131.66
2018-09-11T03:39:00.700Z,98121.98
2018-09-11T03:41:29.289Z,98124.25
2018-09-11T03:43:57.847Z,98128.94
2018-09-11T03:46:26.409Z,98125.83
2018-09-11T03:48:55.063Z,98130.44
2018-09-11T03:51:23.610Z,98128.84
2018-09-11T03:53:52.174Z,98130.66
2018-09-11T03:56:20.768Z,98131.38
2018-09-11T03:58:49.324Z,98136.50
2018-09-11T04:01:17.879Z,98142.97
2018-09-11T04:03:46.599Z,98140.79
2018-09-11T04:06:15.147Z,98148.83
2018-09-11T04:08:43.704Z,98152.33
2018-09-11T04:11:12.649Z,98155.20
2018-09-11T04:13:41.211Z,98149.17
2018-09-11T04:16:09.764Z,98147.70
2018-09-11T04:18:38.340Z,98149.58
2018-09-11T04:21:06.943Z,98154.32
2018-09-11T04:23:35.490Z,98150.48
2018-09-11T04:26:04.576Z,98149.00
2018-09-11T04:28:33.407Z,98145.06
2018-09-11T04:31:01.968Z,98147.10
2018-09-11T04:33:30.826Z,98150.36
2018-09-11T04:35:59.772Z,98148.94
2018-09-11T04:38:28.403Z,98139.68
2018-09-11T04:40:57.423Z,98147.13
2018-09-11T04:43:25.982Z,98152.70
2018-09-11T04:45:54.567Z,98153.83
2018-09-11T04:48:23.166Z,98151.56
2018-09-11T04:50:51.727Z,98154.89
2018-09-11T04:53:20.305Z,98153.08
2018-09-11T04:55:48.913Z,98152.53
2018-09-11T04:58:17.465Z,98156.37
2018-09-11T05:00:46.004Z,98151.89
2018-09-11T05:03:14.923Z,98160.38
2018-09-11T05:05:43.475Z,98154.51
2018-09-11T05:08:12.031Z,98160.47
2018-09-11T05:10:40.684Z,98158.20
2018-09-11T05:13:09.525Z,98164.06
2018-09-11T05:15:38.084Z,98160.85
2018-09-11T05:18:06.970Z,98159.40
2018-09-11T05:20:35.551Z,98165.36
2018-09-11T05:23:04.159Z,98170.13
2018-09-11T05:25:32.943Z,98163.33
2018-09-11T05:28:01.489Z,98168.07
2018-09-11T05:30:30.068Z,98170.63
2018-09-11T05:32:58.739Z,98172.59
2018-09-11T05:35:27.290Z,98180.22
2018-09-11T05:37:55.846Z,98177.26
2018-09-11T05:40:24.632Z,98178.33
2018-09-11T05:42:53.183Z,98183.79
2018-09-11T05:45:21.738Z,98181.44
2018-09-11T05:47:50.466Z,98178.69
2018-09-11T05:50:19.019Z,98176.42
2018-09-11T05:52:47.587Z,98181.20
2018-09-11T05:55:16.173Z,98179.66
2018-09-11T05:57:44.732Z,98177.91
2018-09-11T06:00:13.616Z,98182.77
2018-09-11T06:02:42.284Z,98177.17
2018-09-11T06:05:10.839Z,98181.84
2018-09-11T06:07:39.472Z,98187.72
2018-09-11T06:10:08.183Z,98187.31
2018-09-11T06:12:36.728Z,98191.39
2018-09-11T06:15:05.383Z,98202.62
2018-09-11T06:17:33.979Z,98198.23
2018-09-11T06:20:02.544Z,98200.38
2018-09-11T06:22:31.099Z,98193.21
2018-09-11T06:24:59.755Z,98185.83
2018-09-11T06:27:28.327Z,98193.25
2018-09-11T06:29:56.912Z,98184.84
2018-09-11T06:32:25.715Z,98192.80
2018-09-11T06:34:54.275Z,98191.19
2018-09-11T06:37:22.838Z,98195.03
2018-09-11T06:39:51.475Z,98200.23
2018-09-11T06:42:20.031Z,98199.75
2018-09-11T06:44:48.635Z,98199.12
2018-09-11T06:47:17.280Z,98198.27
2018-09-11T06:49:45.833Z,98192.23
2018-09-11T06:52:14.392Z,98202.73
2018-09-11T06:54:43.030Z,98202.27
2018-09-11T06:57:11.601Z,98199.65
2018-09-11T06:59:40.148Z,98197.47
2018-09-11T07:02:09.052Z,98194.28
2018-09-11T07:04:37.610Z,98201.58
2018-09-11T07:07:06.179Z,98199.12
2018-09-11T07:09:34.911Z,98193.83
2018-09-11T07:12:03.490Z,98191.56
2018-09-11T07:14:32.050Z,98190.94
2018-09-11T07:17:00.983Z,98190.06
2018-09-11T07:19:29.625Z,98197.70
2018-09-11T07:21:58.312Z,98202.66
2018-09-11T07:24:27.051Z,98202.83
2018-09-11T07:26:55.672Z,98204.84
2018-09-11T07:29:24.312Z,98203.73
2018-09-11T07:31:52.955Z,98201.80
2018-09-11T07:34:21.511Z,98201.52
2018-09-11T07:36:50.364Z,98200.16
2018-09-11T07:39:19.463Z,98189.77
2018-09-11T07:41:48.064Z,98199.30
2018-09-11T07:44:16.675Z,98200.03
2018-09-11T07:46:45.316Z,98200.11
2018-09-11T07:49:13.872Z,98200.64
2018-09-11T07:51:42.424Z,98197.94
2018-09-11T07:54:11.267Z,98200.63
2018-09-11T07:56:39.808Z,98205.78
2018-09-11T07:59:08.388Z,98204.59
2018-09-11T08:01:36.963Z,98208.91
2018-09-11T08:04:05.536Z,98208.88
2018-09-11T08:06:34.080Z,98213.20
2018-09-11T08:09:03.027Z,98212.91
2018-09-11T08:11:31.591Z,98211.70
2018-09-11T08:14:00.144Z,98210.27
2018-09-11T08:16:28.854Z,98204.11
2018-09-11T08:18:57.375Z,98200.42
2018-09-11T08:21:25.924Z,98206.37
2018-09-11T08:23:54.898Z,98206.29
2018-09-11T08:26:23.440Z,98206.86
2018-09-11T08:28:51.999Z,98208.78
2018-09-11T08:31:20.699Z,98206.77
2018-09-11T08:33:49.254Z,98207.88
2018-09-11T08:36:17.799Z,98206.66
2018-09-11T08:38:46.455Z,98205.61
2018-09-11T08:41:15.015Z,98202.53
2018-09-11T08:43:43.559Z,98203.49
2018-09-11T08:46:12.255Z,98206.97
2018-09-11T08:48:40.808Z,98210.53
2018-09-11T08:51:11.508Z,98206.52
2018-09-11T08:53:41.828Z,98213.69
2018-09-11T08:56:10.791Z,98210.25
2018-09-11T08:58:39.716Z,98207.67
2018-09-11T09:01:08.590Z,98211.67
2018-09-11T09:03:37.151Z,98208.95
2018-09-11T09:06:05.823Z,98204.55
2018-09-11T09:08:34.368Z,98201.77
2018-09-11T09:11:02.913Z,98208.87
2018-09-11T09:13:31.568Z,98205.86
2018-09-11T09:16:00.116Z,98200.52
2018-09-11T09:18:28.663Z,98198.27
2018-09-11T09:20:57.263Z,98195.66
2018-09-11T09:23:25.843Z,98194.94
2018-09-11T09:25:54.384Z,98199.19
2018-09-11T09:28:23.036Z,98202.81
2018-09-11T09:30:51.763Z,98199.27
2018-09-11T09:33:20.328Z,98198.25
2018-09-11T09:35:48.916Z,98191.45
2018-09-11T09:38:17.472Z,98193.01
2018-09-11T09:40:46.039Z,98191.65
2018-09-11T09:43:14.636Z,98192.63
2018-09-11T09:45:43.200Z,98199.09
2018-09-11T09:48:11.751Z,98193.91
2018-09-11T09:50:40.717Z,98195.25
2018-09-11T09:53:09.260Z,98194.22
2018-09-11T09:55:37.794Z,98185.71
2018-09-11T09:58:07.336Z,98187.63
2018-09-11T10:00:41.155Z,98187.69
2018-09-11T10:03:09.804Z,98184.19
2018-09-11T10:05:38.387Z,98177.38
2018-09-11T10:08:06.955Z,98177.88
2018-09-11T10:10:35.616Z,98177.95
2018-09-11T10:13:04.180Z,98177.21
2018-09-11T10:15:32.729Z,98179.68
2018-09-11T10:18:01.311Z,98171.25
2018-09-11T10:20:29.873Z,98173.44
2018-09-11T10:22:58.443Z,98172.39
2018-09-11T10:25:27.027Z,98173.35
2018-09-11T10:27:55.739Z,98169.14
2018-09-11T10:30:24.723Z,98167.89
2018-09-11T10:32:53.563Z,98174.87
2018-09-11T10:35:22.156Z,98172.39
2018-09-11T10:37:50.699Z,98175.01
2018-09-11T10:40:19.320Z,98175.45
2018-09-11T10:42:47.859Z,98175.80
2018-09-11T10:45:16.491Z,98168.74
2018-09-11T10:47:45.220Z,98164.08
2018-09-11T10:50:13.773Z,98159.31
2018-09-11T10:52:42.314Z,98163.14
2018-09-11T10:55:10.941Z,98157.66
2018-09-11T10:57:39.497Z,98152.95
2018-09-11T11:00:08.080Z,98158.44
2018-09-11T11:02:36.799Z,98151.41
2018-09-11T11:05:05.363Z,98147.58
2018-09-11T11:07:33.916Z,98140.49
2018-09-11T11:10:02.756Z,98148.00
2018-09-11T11:12:31.316Z,98139.36
2018-09-11T11:15:06.648Z,98134.56
2018-09-11T11:17:35.202Z,98145.48
2018-09-11T11:20:03.755Z,98132.66
2018-09-11T11:22:32.832Z,98141.27
2018-09-11T11:25:01.415Z,98135.47
2018-09-11T11:27:29.969Z,98130.22
2018-09-11T11:29:58.786Z,98130.77
2018-09-11T11:32:27.376Z,98124.02
2018-09-11T11:34:55.947Z,98121.55
2018-09-11T11:37:24.737Z,98119.00
2018-09-11T11:39:53.195Z,98122.88
2018-09-11T11:42:21.761Z,98120.23
2018-09-11T11:44:50.412Z,98126.34
2018-09-11T11:47:20.376Z,98122.98
2018-09-11T11:49:50.112Z,98118.92
2018-09-11T11:52:19.143Z,98115.56
2018-09-11T11:54:47.795Z,98106.48
2018-09-11T11:57:16.359Z,98105.31
2018-09-11T11:59:44.896Z,98107.30
2018-09-11T12:02:13.573Z,98105.72
2018-09-11T12:04:42.248Z,98100.34
2018-09-11T12:07:10.841Z,98092.61
2018-09-11T12:09:39.411Z,98096.20
2018-09-11T12:12:08.010Z,98093.00
2018-09-11T12:14:36.559Z,98094.94
2018-09-11T12:17:05.282Z,98094.06
2018-09-11T12:19:34.036Z,98093.53
2018-09-11T12:22:02.601Z,98090.41
2018-09-11T12:24:31.143Z,98081.41
2018-09-11T12:26:59.821Z,98089.61
2018-09-11T12:29:28.373Z,98082.43
2018-09-11T12:31:56.936Z,98084.82
2018-09-11T12:34:25.756Z,98076.80
2018-09-11T12:36:54.311Z,98081.03
2018-09-11T12:39:22.871Z,98071.72
2018-09-11T12:41:51.483Z,98071.38
2018-09-11T12:44:20.034Z,98078.75
2018-09-11T12:46:48.853Z,98068.80
2018-09-11T12:49:17.455Z,98073.42
2018-09-11T12:51:46.119Z,98071.59
2018-09-11T12:54:14.712Z,98074.33
2018-09-11T12:56:43.364Z,98067.48
2018-09-11T12:59:12.020Z,98068.83
2018-09-11T13:01:40.568Z,98065.70
2018-09-11T13:04:09.651Z,98063.59
2018-09-11T13:06:38.251Z,98058.70
2018-09-11T13:09:08.042Z,98059.99
2018-09-11T13:11:36.636Z,98057.70
2018-09-11T13:14:05.682Z,98067.18
2018-09-11T13:16:34.295Z,98054.27
2018-09-11T13:19:02.981Z,98054.27
2018-09-11T13:21:31.550Z,98057.24
2018-09-11T13:24:00.091Z,98065.51
2018-09-11T13:26:28.672Z,98059.34
2018-09-11T13:28:58.132Z,98056.33
2018-09-11T13:31:26.709Z,98050.81
2018-09-11T13:33:55.418Z,98053.10
2018-09-11T13:36:23.871Z,98049.34
2018-09-11T13:38:52.500Z,98046.02
2018-09-11T13:41:21.423Z,98046.45
2018-09-11T13:43:50.352Z,98045.69
2018-09-11T13:46:18.991Z,98039.78
2018-09-11T13:48:47.538Z,98039.84
2018-09-11T13:51:16.096Z,98039.84
2018-09-11T13:53:44.719Z,98039.09
2018-09-11T13:56:13.471Z,98037.06
2018-09-11T13:58:41.988Z,98043.81
2018-09-11T14:01:10.544Z,98040.08
2018-09-11T14:03:39.506Z,98038.85
2018-09-11T14:06:08.060Z,98032.52
2018-09-11T14:08:36.616Z,98031.53
2018-09-11T14:11:05.331Z,98030.73
2018-09-11T14:13:33.903Z,98026.00
2018-09-11T14:16:02.572Z,98029.57
2018-09-11T14:18:31.183Z,98028.58
2018-09-11T14:20:59.783Z,98024.18
2018-09-11T14:23:28.346Z,98024.86
2018-09-11T14:25:57.274Z,98015.91
2018-09-11T14:28:25.831Z,98015.28
2018-09-11T14:30:54.395Z,98013.64
2018-09-11T14:33:23.223Z,98016.91
2018-09-11T14:35:51.823Z,98004.66
2018-09-11T14:38:20.380Z,97998.75
2018-09-11T14:40:49.067Z,98006.70
2018-09-11T14:43:17.627Z,98007.09
2018-09-11T14:45:46.201Z,98012.20
2018-09-11T14:48:14.986Z,98008.94
2018-09-11T14:50:43.617Z,98013.00
2018-09-11T14:53:12.173Z,98007.03
2018-09-11T14:55:40.883Z,98014.03
2018-09-11T14:58:09.428Z,98002.59
2018-09-11T15:00:38.014Z,98000.64
2018-09-11T15:03:07.192Z,97995.73
2018-09-11T15:05:35.764Z,97994.59
2018-09-11T15:08:04.312Z,97986.91
2018-09-11T15:10:33.044Z,97987.91
2018-09-11T15:13:01.639Z,97985.91
2018-09-11T15:15:30.191Z,97977.12
2018-09-11T15:17:58.888Z,97981.03
2018-09-11T15:20:27.471Z,97984.27
2018-09-11T15:22:56.011Z,97978.56
2018-09-11T15:25:24.611Z,97970.88
2018-09-11T15:27:53.172Z,97971.05
2018-09-11T15:30:21.731Z,97971.08
2018-09-11T15:32:50.575Z,97969.77
2018-09-11T15:35:19.155Z,97971.28
2018-09-11T15:37:47.703Z,97964.86
2018-09-11T15:40:16.418Z,97960.81
2018-09-11T15:42:44.955Z,97959.95
2018-09-11T15:45:13.511Z,97965.96
2018-09-11T15:47:42.079Z,97955.49
2018-09-11T15:50:10.633Z,97956.97
2018-09-11T15:52:39.196Z,97958.58
2018-09-11T15:55:07.891Z,97958.10
2018-09-11T15:57:36.459Z,97958.88
2018-09-11T16:00:05.048Z,97955.28
2018-09-11T16:02:33.627Z,97948.55
2018-09-11T16:05:02.189Z,97946.94
2018-09-11T16:07:30.732Z,97947.76
2018-09-11T16:09:59.334Z,97946.46
2018-09-11T16:12:27.877Z,97949.23
2018-09-11T16:14:56.462Z,97948.55
2018-09-11T16:17:25.028Z,97944.43
2018-09-11T16:19:53.588Z,97948.17
2018-09-11T16:22:22.140Z,97937.56
2018-09-11T16:24:51.412Z,97942.57
2018-09-11T16:27:19.960Z,97951.00
2018-09-11T16:29:48.575Z,97944.05
2018-09-11T16:32:17.104Z,97944.34
2018-09-11T16:34:45.675Z,97937.48
2018-09-11T16:37:14.240Z,97947.70
2018-09-11T16:39:43.852Z,97947.16
2018-09-11T16:42:12.412Z,97943.37
2018-09-11T16:44:40.960Z,97945.16
2018-09-11T16:47:09.894Z,97943.80
2018-09-11T16:49:44.815Z,97948.45
2018-09-11T16:52:13.412Z,97953.66
2018-09-11T16:54:42.045Z,97949.81
2018-09-11T16:57:10.604Z,97956.28
2018-09-11T16:59:39.276Z,97953.10
2018-09-11T17:02:08.024Z,97954.03
2018-09-11T17:04:37.004Z,97953.22
2018-09-11T17:07:05.828Z,97958.05
2018-09-11T17:09:34.383Z,97959.47
2018-09-11T17:12:02.927Z,97959.95
2018-09-11T17:14:31.503Z,97961.57
2018-09-11T17:17:00.096Z,97966.62
2018-09-11T17:19:28.660Z,97963.72
2018-09-11T17:21:57.295Z,97960.98
2018-09-11T17:24:25.847Z,97962.21
2018-09-11T17:26:54.435Z,97957.97
2018-09-11T17:29:23.132Z,97961.33
2018-09-11T17:31:51.680Z,97961.49
2018-09-11T17:34:20.309Z,97965.48
2018-09-11T17:36:49.017Z,97968.38
2018-09-11T17:39:17.596Z,97969.95
2018-09-11T17:41:46.143Z,97970.88
2018-09-11T17:44:14.727Z,97967.86
2018-09-11T17:46:43.702Z,97968.61
2018-09-11T17:49:12.331Z,97972.73
2018-09-11T17:51:40.903Z,97977.31
2018-09-11T17:54:09.489Z,97978.66
2018-09-11T17:56:38.108Z,97980.64
2018-09-11T17:59:07.085Z,97981.27
2018-09-11T18:01:35.651Z,97981.70
2018-09-11T18:04:04.232Z,97987.09
2018-09-11T18:06:32.919Z,97986.81
2018-09-11T18:09:01.484Z,97992.67
2018-09-11T18:11:30.045Z,97993.16
2018-09-11T18:13:58.736Z,97999.41
2018-09-11T18:16:27.299Z,98000.92
2018-09-11T18:18:55.864Z,98000.55
2018-09-11T18:21:24.531Z,98001.73
2018-09-11T18:23:53.188Z,97999.58
2018-09-11T18:26:21.760Z,97991.70
2018-09-11T18:28:50.494Z,97997.86
2018-09-11T18:31:19.076Z,97998.06
2018-09-11T18:33:47.782Z,98003.16
2018-09-11T18:36:16.532Z,97998.80
2018-09-11T18:38:45.111Z,98005.23
2018-09-11T18:41:14.167Z,98008.34
2018-09-11T18:43:42.951Z,98010.16
2018-09-11T18:46:11.512Z,98012.11
2018-09-11T18:48:40.072Z,98015.58
2018-09-11T18:51:08.672Z,98021.84
2018-09-11T18:53:37.239Z,98022.34
2018-09-11T18:56:05.795Z,98016.63
2018-09-11T18:58:34.455Z,98018.78
2018-09-11T19:01:03.028Z,98023.27
2018-09-11T19:03:31.575Z,98026.12
2018-09-11T19:06:00.255Z,98031.91
2018-09-11T19:08:28.808Z,98034.66
2018-09-11T19:10:57.378Z,98032.31
2018-09-11T19:13:26.067Z,98030.00
2018-09-11T19:15:54.683Z,98029.86
2018-09-11T19:18:23.323Z,98028.00
2018-09-11T19:20:51.999Z,98027.80
2018-09-11T19:23:20.564Z,98029.78
2018-09-11T19:25:49.136Z,98026.38
2018-09-11T19:28:17.817Z,98025.47
2018-09-11T19:30:46.376Z,98026.77
2018-09-11T19:33:14.940Z,98026.27
2018-09-11T19:35:43.691Z,98027.11
2018-09-11T19:38:12.244Z,98028.88
2018-09-11T19:40:40.813Z,98028.44
2018-09-11T19:43:09.399Z,98027.26
2018-09-11T19:45:37.980Z,98027.27
2018-09-11T19:48:06.699Z,98024.33
2018-09-11T19:50:35.420Z,98021.42
2018-09-11T19:53:03.972Z,98022.09
2018-09-11T19:55:32.520Z,98023.72
2018-09-11T19:58:01.188Z,98034.20
2018-09-11T20:00:29.744Z,98032.19
2018-09-11T20:02:58.307Z,98031.73
2018-09-11T20:05:26.971Z,98026.56
2018-09-11T20:07:55.614Z,98025.27
2018-09-11T20:10:24.182Z,98021.95
2018-09-11T20:12:52.822Z,98025.96
2018-09-11T20:15:21.390Z,98027.84
2018-09-11T20:17:49.968Z,98027.25
2018-09-11T20:20:18.552Z,98027.81
2018-09-11T20:22:47.103Z,98025.68
2018-09-11T20:25:15.814Z,98029.75
2018-09-11T20:27:44.443Z,98027.98
2018-09-11T20:30:13.032Z,98026.78
2018-09-11T20:32:41.667Z,98024.53
2018-09-11T20:35:10.524Z,98028.03
2018-09-11T20:37:39.171Z,98028.25
2018-09-11T20:40:07.772Z,98033.03
2018-09-11T20:42:36.823Z,98030.34
2018-09-11T20:45:05.442Z,98029.71
2018-09-11T20:47:34.019Z,98036.58
2018-09-11T20:50:02.876Z,98042.67
2018-09-11T20:52:31.450Z,98042.28
2018-09-11T20:55:00.008Z,98035.09
2018-09-11T20:57:28.579Z,98036.35
2018-09-11T20:59:57.131Z,98034.36
2018-09-11T21:02:25.690Z,98035.28
2018-09-11T21:04:54.371Z,98036.20
2018-09-11T21:07:22.935Z,98038.56
2018-09-11T21:09:51.486Z,98039.14
2018-09-11T21:12:20.339Z,98035.86
2018-09-11T21:14:48.909Z,98031.22
2018-09-11T21:17:17.465Z,98036.19
2018-09-11T21:19:46.166Z,98034.83
2018-09-11T21:22:14.723Z,98034.08
2018-09-11T21:24:43.279Z,98031.45
2018-09-11T21:27:11.953Z,98032.76
2018-09-11T21:29:40.508Z,98037.09
2018-09-11T21:32:09.064Z,98036.47
2018-09-11T21:34:38.022Z,98037.66
2018-09-11T21:37:06.748Z,98034.08
2018-09-11T21:39:35.289Z,98036.48
2018-09-11T21:42:04.271Z,98040.75
2018-09-11T21:44:32.851Z,98051.52
2018-09-11T21:47:01.395Z,98047.97
2018-09-11T21:49:30.036Z,98049.66
2018-09-11T21:54:32.832Z,98050.78
2018-09-11T21:57:01.395Z,98047.17
2018-09-11T21:59:29.963Z,98045.75
2018-09-11T22:02:02.288Z,98050.15
2018-09-11T22:04:31.503Z,98046.34
2018-09-11T22:07:00.051Z,98051.27
2018-09-11T22:09:28.931Z,98051.09
2018-09-11T22:11:57.547Z,98049.91
2018-09-11T22:14:26.055Z,98050.30
2018-09-11T22:16:54.741Z,98054.35
2018-09-11T22:19:23.291Z,98059.35
2018-09-11T22:21:51.874Z,98051.45
2018-09-11T22:24:20.480Z,98053.20
2018-09-11T22:26:49.028Z,98050.73
2018-09-11T22:29:17.575Z,98048.44
2018-09-11T22:31:46.247Z,98045.42
2018-09-11T22:34:14.792Z,98044.82
2018-09-11T22:36:43.391Z,98047.97
2018-09-11T22:39:12.355Z,98041.58
2018-09-11T22:41:40.972Z,98035.42
2018-09-11T22:44:09.476Z,98039.58
2018-09-11T22:46:38.191Z,98034.24
2018-09-11T22:49:06.756Z,98036.36
2018-09-11T22:51:35.308Z,98036.97
2018-09-11T22:54:04.005Z,98031.03
2018-09-11T22:56:32.546Z,98031.56
2018-09-11T22:59:01.095Z,98029.75
2018-09-11T23:01:29.824Z,98025.78
2018-09-11T23:03:58.368Z,98029.37
2018-09-11T23:06:26.920Z,98026.27
2018-09-11T23:08:55.585Z,98023.88
2018-09-11T23:11:24.123Z,98027.36
2018-09-11T23:13:52.752Z,98026.55
2018-09-11T23:16:21.767Z,98024.16
2018-09-11T23:18:50.330Z,98021.78
2018-09-11T23:21:18.891Z,98020.95
2018-09-11T23:23:47.553Z,98023.81
2018-09-11T23:26:16.175Z,98029.13
2018-09-11T23:28:44.736Z,98030.86
2018-09-11T23:31:13.395Z,98027.02
2018-09-11T23:33:41.979Z,98024.07
2018-09-11T23:36:10.552Z,98025.08
2018-09-11T23:38:39.164Z,98025.99
2018-09-11T23:41:08.026Z,98028.39
2018-09-11T23:43:36.587Z,98022.23
2018-09-11T23:46:05.463Z,98025.63
2018-09-11T23:48:34.014Z,98020.94
2018-09-11T23:51:02.563Z,98018.83
2018-09-11T23:53:31.152Z,98019.28
2018-09-11T23:55:59.745Z,98013.34
2018-09-11T23:58:28.304Z,98012.59
